Shelby, Nebraska
Current Conditions -  °F | °C
As of 8:55 PM on Sunday 21 Dec 2014 (Local Time) from KOLU Reporting Station
Overcast Overcast  
Wind Chill: 33°   Ceiling: 800
Heat Index: 41°   Visibility: 10mi
Dew Point: 37°   Wind: 15mph
Humidity: 87%   Direction: 180°S
Pressure: 29.61"   Gusts: 20mph
Location:  41.19°N, 97.43°W
Report Text: KOLU 220255Z AUTO 18013G17KT 10SM OVC008 05/03 A2961 RMK AO1 57017
Loading
Personal Weather Stations






























Interactive Weather Map New forecast layout! Learn more

10-Day Weather Forecast

Advertisements
Track Severe Weather on mobile